sensor_id;sensor_type;location;lat;lon;timestamp;P1;durP1;ratioP1;P2;durP2;ratioP2
27408;SDS011;20413;50.782;7.152;2023-04-03T00:00:08;3.33;;;2.00;;
27408;SDS011;20413;50.782;7.152;2023-04-03T00:02:34;4.22;;;1.80;;
27408;SDS011;20413;50.782;7.152;2023-04-03T00:05:00;2.80;;;1.60;;
27408;SDS011;20413;50.782;7.152;2023-04-03T00:07:26;3.50;;;1.60;;
27408;SDS011;20413;50.782;7.152;2023-04-03T00:09:51;2.20;;;1.80;;
27408;SDS011;20413;50.782;7.152;2023-04-03T00:12:17;4.90;;;1.90;;
27408;SDS011;20413;50.782;7.152;2023-04-03T00:14:43;2.80;;;1.70;;
27408;SDS011;20413;50.782;7.152;2023-04-03T00:17:08;4.07;;;2.05;;
27408;SDS011;20413;50.782;7.152;2023-04-03T00:19:34;6.15;;;1.90;;
27408;SDS011;20413;50.782;7.152;2023-04-03T00:22:00;3.13;;;1.75;;
27408;SDS011;20413;50.782;7.152;2023-04-03T00:24:25;2.97;;;1.80;;
27408;SDS011;20413;50.782;7.152;2023-04-03T00:26:51;4.10;;;1.90;;
27408;SDS011;20413;50.782;7.152;2023-04-03T00:29:16;4.53;;;1.70;;
27408;SDS011;20413;50.782;7.152;2023-04-03T00:31:42;4.22;;;2.47;;
27408;SDS011;20413;50.782;7.152;2023-04-03T00:34:07;4.15;;;1.88;;
27408;SDS011;20413;50.782;7.152;2023-04-03T00:36:33;7.25;;;2.35;;
27408;SDS011;20413;50.782;7.152;2023-04-03T00:38:59;3.63;;;2.15;;
27408;SDS011;20413;50.782;7.152;2023-04-03T00:41:24;7.95;;;1.98;;
27408;SDS011;20413;50.782;7.152;2023-04-03T00:43:51;4.45;;;1.92;;
27408;SDS011;20413;50.782;7.152;2023-04-03T00:46:17;3.85;;;2.00;;
27408;SDS011;20413;50.782;7.152;2023-04-03T00:48:46;3.17;;;1.80;;
27408;SDS011;20413;50.782;7.152;2023-04-03T00:51:14;2.92;;;1.77;;
27408;SDS011;20413;50.782;7.152;2023-04-03T00:53:46;3.83;;;1.90;;
27408;SDS011;20413;50.782;7.152;2023-04-03T00:56:21;3.08;;;2.28;;
27408;SDS011;20413;50.782;7.152;2023-04-03T00:59:11;5.78;;;2.13;;
27408;SDS011;20413;50.782;7.152;2023-04-03T01:01:41;3.10;;;1.75;;
27408;SDS011;20413;50.782;7.152;2023-04-03T01:07:00;3.22;;;1.75;;
27408;SDS011;20413;50.782;7.152;2023-04-03T01:09:35;4.72;;;2.17;;
27408;SDS011;20413;50.782;7.152;2023-04-03T01:14:53;4.60;;;1.90;;
27408;SDS011;20413;50.782;7.152;2023-04-03T01:19:50;6.63;;;2.05;;
27408;SDS011;20413;50.782;7.152;2023-04-03T01:25:36;4.20;;;2.00;;
27408;SDS011;20413;50.782;7.152;2023-04-03T01:28:09;5.57;;;1.83;;
27408;SDS011;20413;50.782;7.152;2023-04-03T01:33:42;3.30;;;2.08;;
27408;SDS011;20413;50.782;7.152;2023-04-03T01:36:08;4.95;;;1.95;;
27408;SDS011;20413;50.782;7.152;2023-04-03T01:38:35;3.07;;;2.07;;
27408;SDS011;20413;50.782;7.152;2023-04-03T01:41:01;2.85;;;2.03;;
27408;SDS011;20413;50.782;7.152;2023-04-03T01:43:27;6.28;;;2.00;;
27408;SDS011;20413;50.782;7.152;2023-04-03T01:45:52;4.10;;;2.10;;
27408;SDS011;20413;50.782;7.152;2023-04-03T01:48:19;3.75;;;2.13;;
27408;SDS011;20413;50.782;7.152;2023-04-03T01:50:45;3.65;;;1.80;;
27408;SDS011;20413;50.782;7.152;2023-04-03T01:53:11;6.63;;;2.38;;
27408;SDS011;20413;50.782;7.152;2023-04-03T01:55:36;3.92;;;2.10;;
27408;SDS011;20413;50.782;7.152;2023-04-03T01:58:02;3.00;;;1.98;;
27408;SDS011;20413;50.782;7.152;2023-04-03T02:00:27;5.70;;;1.67;;
27408;SDS011;20413;50.782;7.152;2023-04-03T02:02:53;3.10;;;2.17;;
27408;SDS011;20413;50.782;7.152;2023-04-03T02:05:18;4.13;;;2.20;;
27408;SDS011;20413;50.782;7.152;2023-04-03T02:07:44;2.75;;;1.92;;
27408;SDS011;20413;50.782;7.152;2023-04-03T02:10:10;9.05;;;2.38;;
27408;SDS011;20413;50.782;7.152;2023-04-03T02:12:36;4.13;;;2.15;;
27408;SDS011;20413;50.782;7.152;2023-04-03T02:15:01;4.55;;;2.90;;
27408;SDS011;20413;50.782;7.152;2023-04-03T02:17:27;2.17;;;1.98;;
27408;SDS011;20413;50.782;7.152;2023-04-03T02:19:53;3.97;;;2.40;;
27408;SDS011;20413;50.782;7.152;2023-04-03T02:22:18;3.60;;;2.28;;
27408;SDS011;20413;50.782;7.152;2023-04-03T02:24:45;4.28;;;2.45;;
27408;SDS011;20413;50.782;7.152;2023-04-03T02:27:10;4.95;;;2.67;;
27408;SDS011;20413;50.782;7.152;2023-04-03T02:29:36;4.10;;;2.47;;
27408;SDS011;20413;50.782;7.152;2023-04-03T02:32:02;3.92;;;2.20;;
27408;SDS011;20413;50.782;7.152;2023-04-03T02:34:27;5.78;;;2.42;;
27408;SDS011;20413;50.782;7.152;2023-04-03T02:36:53;4.40;;;2.50;;
27408;SDS011;20413;50.782;7.152;2023-04-03T02:39:18;5.60;;;2.05;;
27408;SDS011;20413;50.782;7.152;2023-04-03T02:41:44;3.15;;;2.17;;
27408;SDS011;20413;50.782;7.152;2023-04-03T02:44:10;2.83;;;2.15;;
27408;SDS011;20413;50.782;7.152;2023-04-03T02:46:36;6.95;;;3.58;;
27408;SDS011;20413;50.782;7.152;2023-04-03T02:49:01;9.63;;;3.50;;
27408;SDS011;20413;50.782;7.152;2023-04-03T02:51:27;5.18;;;3.05;;
27408;SDS011;20413;50.782;7.152;2023-04-03T02:53:53;8.02;;;2.88;;
27408;SDS011;20413;50.782;7.152;2023-04-03T02:56:18;3.47;;;2.60;;
27408;SDS011;20413;50.782;7.152;2023-04-03T02:58:45;4.40;;;2.20;;
27408;SDS011;20413;50.782;7.152;2023-04-03T03:01:11;9.38;;;4.55;;
27408;SDS011;20413;50.782;7.152;2023-04-03T03:03:37;9.18;;;3.17;;
27408;SDS011;20413;50.782;7.152;2023-04-03T03:06:09;8.05;;;3.50;;
27408;SDS011;20413;50.782;7.152;2023-04-03T03:08:37;5.22;;;3.17;;
27408;SDS011;20413;50.782;7.152;2023-04-03T03:11:03;5.68;;;2.83;;
27408;SDS011;20413;50.782;7.152;2023-04-03T03:13:29;3.40;;;2.50;;
27408;SDS011;20413;50.782;7.152;2023-04-03T03:15:55;7.72;;;3.25;;
27408;SDS011;20413;50.782;7.152;2023-04-03T03:18:21;5.45;;;2.63;;
27408;SDS011;20413;50.782;7.152;2023-04-03T03:20:51;4.47;;;2.30;;
27408;SDS011;20413;50.782;7.152;2023-04-03T03:23:18;6.85;;;2.80;;
27408;SDS011;20413;50.782;7.152;2023-04-03T03:25:43;5.68;;;2.28;;
27408;SDS011;20413;50.782;7.152;2023-04-03T03:28:09;3.58;;;2.53;;
27408;SDS011;20413;50.782;7.152;2023-04-03T03:30:34;3.70;;;2.40;;
27408;SDS011;20413;50.782;7.152;2023-04-03T03:33:00;4.78;;;2.67;;
27408;SDS011;20413;50.782;7.152;2023-04-03T03:35:26;4.78;;;3.30;;
27408;SDS011;20413;50.782;7.152;2023-04-03T03:37:52;3.60;;;3.30;;
27408;SDS011;20413;50.782;7.152;2023-04-03T03:40:17;4.75;;;2.85;;
27408;SDS011;20413;50.782;7.152;2023-04-03T03:42:43;4.75;;;3.00;;
27408;SDS011;20413;50.782;7.152;2023-04-03T03:45:08;5.82;;;2.88;;
27408;SDS011;20413;50.782;7.152;2023-04-03T03:47:34;7.70;;;3.42;;
27408;SDS011;20413;50.782;7.152;2023-04-03T03:50:00;6.78;;;3.45;;
27408;SDS011;20413;50.782;7.152;2023-04-03T03:52:26;4.05;;;2.90;;
27408;SDS011;20413;50.782;7.152;2023-04-03T03:54:52;3.38;;;3.00;;
27408;SDS011;20413;50.782;7.152;2023-04-03T03:57:17;8.98;;;4.95;;
27408;SDS011;20413;50.782;7.152;2023-04-03T03:59:43;8.25;;;3.80;;
27408;SDS011;20413;50.782;7.152;2023-04-03T04:02:09;5.32;;;3.80;;
27408;SDS011;20413;50.782;7.152;2023-04-03T04:04:36;6.57;;;4.57;;
27408;SDS011;20413;50.782;7.152;2023-04-03T04:07:02;7.88;;;4.40;;
27408;SDS011;20413;50.782;7.152;2023-04-03T04:09:27;8.02;;;3.30;;
27408;SDS011;20413;50.782;7.152;2023-04-03T04:11:53;3.58;;;3.00;;
27408;SDS011;20413;50.782;7.152;2023-04-03T04:14:19;6.53;;;3.47;;
27408;SDS011;20413;50.782;7.152;2023-04-03T04:16:47;4.47;;;3.15;;
27408;SDS011;20413;50.782;7.152;2023-04-03T04:19:13;4.97;;;3.50;;
27408;SDS011;20413;50.782;7.152;2023-04-03T04:21:39;5.53;;;3.38;;
27408;SDS011;20413;50.782;7.152;2023-04-03T04:24:06;5.47;;;3.67;;
27408;SDS011;20413;50.782;7.152;2023-04-03T04:26:32;6.13;;;3.65;;
27408;SDS011;20413;50.782;7.152;2023-04-03T04:28:58;5.68;;;3.47;;
27408;SDS011;20413;50.782;7.152;2023-04-03T04:31:23;5.32;;;3.50;;
27408;SDS011;20413;50.782;7.152;2023-04-03T04:33:49;4.53;;;2.65;;
27408;SDS011;20413;50.782;7.152;2023-04-03T04:36:15;7.70;;;3.97;;
27408;SDS011;20413;50.782;7.152;2023-04-03T04:38:40;10.65;;;4.20;;
27408;SDS011;20413;50.782;7.152;2023-04-03T04:41:07;5.22;;;4.03;;
27408;SDS011;20413;50.782;7.152;2023-04-03T04:43:33;5.35;;;3.55;;
27408;SDS011;20413;50.782;7.152;2023-04-03T04:46:08;4.78;;;3.65;;
27408;SDS011;20413;50.782;7.152;2023-04-03T04:48:36;8.02;;;3.75;;
27408;SDS011;20413;50.782;7.152;2023-04-03T04:51:03;6.25;;;4.18;;
27408;SDS011;20413;50.782;7.152;2023-04-03T04:53:28;6.78;;;4.35;;
27408;SDS011;20413;50.782;7.152;2023-04-03T04:55:54;9.68;;;5.28;;
27408;SDS011;20413;50.782;7.152;2023-04-03T04:58:20;22.65;;;10.93;;
27408;SDS011;20413;50.782;7.152;2023-04-03T05:00:46;29.67;;;11.57;;
27408;SDS011;20413;50.782;7.152;2023-04-03T05:03:12;17.35;;;7.45;;
27408;SDS011;20413;50.782;7.152;2023-04-03T05:05:37;30.65;;;11.15;;
27408;SDS011;20413;50.782;7.152;2023-04-03T05:08:03;30.50;;;10.23;;
27408;SDS011;20413;50.782;7.152;2023-04-03T05:10:30;33.88;;;12.75;;
27408;SDS011;20413;50.782;7.152;2023-04-03T05:12:56;50.15;;;19.40;;
27408;SDS011;20413;50.782;7.152;2023-04-03T05:15:22;14.02;;;7.28;;
27408;SDS011;20413;50.782;7.152;2023-04-03T05:17:47;5.07;;;2.83;;
27408;SDS011;20413;50.782;7.152;2023-04-03T05:20:13;6.05;;;3.03;;
27408;SDS011;20413;50.782;7.152;2023-04-03T05:22:38;4.72;;;2.75;;
27408;SDS011;20413;50.782;7.152;2023-04-03T05:25:05;7.93;;;2.83;;
27408;SDS011;20413;50.782;7.152;2023-04-03T05:27:31;4.03;;;2.97;;
27408;SDS011;20413;50.782;7.152;2023-04-03T05:29:56;5.93;;;3.13;;
27408;SDS011;20413;50.782;7.152;2023-04-03T05:32:23;8.77;;;3.67;;
27408;SDS011;20413;50.782;7.152;2023-04-03T05:34:50;5.20;;;2.50;;
27408;SDS011;20413;50.782;7.152;2023-04-03T05:37:16;6.78;;;3.13;;
27408;SDS011;20413;50.782;7.152;2023-04-03T05:39:42;5.63;;;3.25;;
27408;SDS011;20413;50.782;7.152;2023-04-03T05:42:08;6.07;;;3.08;;
27408;SDS011;20413;50.782;7.152;2023-04-03T05:44:33;4.95;;;2.63;;
27408;SDS011;20413;50.782;7.152;2023-04-03T05:46:59;3.97;;;2.58;;
27408;SDS011;20413;50.782;7.152;2023-04-03T05:49:24;4.55;;;3.03;;
27408;SDS011;20413;50.782;7.152;2023-04-03T05:51:50;7.88;;;3.38;;
27408;SDS011;20413;50.782;7.152;2023-04-03T05:54:26;4.20;;;3.40;;
27408;SDS011;20413;50.782;7.152;2023-04-03T05:56:53;5.22;;;3.15;;
27408;SDS011;20413;50.782;7.152;2023-04-03T05:59:19;5.13;;;4.60;;
27408;SDS011;20413;50.782;7.152;2023-04-03T06:01:45;4.72;;;3.97;;
27408;SDS011;20413;50.782;7.152;2023-04-03T06:04:11;8.15;;;3.80;;
27408;SDS011;20413;50.782;7.152;2023-04-03T06:09:13;6.93;;;3.65;;
27408;SDS011;20413;50.782;7.152;2023-04-03T06:11:40;3.38;;;2.63;;
27408;SDS011;20413;50.782;7.152;2023-04-03T06:14:06;5.72;;;2.50;;
27408;SDS011;20413;50.782;7.152;2023-04-03T06:16:32;6.18;;;2.13;;
27408;SDS011;20413;50.782;7.152;2023-04-03T06:18:58;5.95;;;1.85;;
27408;SDS011;20413;50.782;7.152;2023-04-03T06:21:24;3.00;;;1.70;;
27408;SDS011;20413;50.782;7.152;2023-04-03T06:23:50;4.03;;;2.45;;
27408;SDS011;20413;50.782;7.152;2023-04-03T06:26:16;5.75;;;2.10;;
27408;SDS011;20413;50.782;7.152;2023-04-03T06:28:42;9.75;;;4.38;;
27408;SDS011;20413;50.782;7.152;2023-04-03T06:31:07;5.53;;;3.10;;
27408;SDS011;20413;50.782;7.152;2023-04-03T06:33:33;4.80;;;2.00;;
27408;SDS011;20413;50.782;7.152;2023-04-03T06:36:00;4.63;;;2.10;;
27408;SDS011;20413;50.782;7.152;2023-04-03T06:38:33;3.92;;;1.63;;
27408;SDS011;20413;50.782;7.152;2023-04-03T06:40:59;4.70;;;2.50;;
27408;SDS011;20413;50.782;7.152;2023-04-03T06:43:25;5.18;;;3.00;;
27408;SDS011;20413;50.782;7.152;2023-04-03T06:45:51;4.25;;;2.25;;
27408;SDS011;20413;50.782;7.152;2023-04-03T06:48:17;2.50;;;1.60;;
27408;SDS011;20413;50.782;7.152;2023-04-03T06:50:42;1.75;;;1.10;;
27408;SDS011;20413;50.782;7.152;2023-04-03T06:53:08;4.57;;;1.65;;
27408;SDS011;20413;50.782;7.152;2023-04-03T06:55:34;3.25;;;1.30;;
27408;SDS011;20413;50.782;7.152;2023-04-03T06:58:00;4.45;;;3.40;;
27408;SDS011;20413;50.782;7.152;2023-04-03T07:00:26;4.22;;;1.85;;
27408;SDS011;20413;50.782;7.152;2023-04-03T07:02:52;4.45;;;1.52;;
27408;SDS011;20413;50.782;7.152;2023-04-03T07:05:18;5.03;;;1.70;;
27408;SDS011;20413;50.782;7.152;2023-04-03T07:07:43;3.15;;;1.27;;
27408;SDS011;20413;50.782;7.152;2023-04-03T07:10:09;2.72;;;1.27;;
27408;SDS011;20413;50.782;7.152;2023-04-03T07:12:36;3.40;;;1.30;;
27408;SDS011;20413;50.782;7.152;2023-04-03T07:15:03;4.28;;;1.30;;
27408;SDS011;20413;50.782;7.152;2023-04-03T07:17:29;4.63;;;1.30;;
27408;SDS011;20413;50.782;7.152;2023-04-03T07:19:56;3.40;;;1.30;;
27408;SDS011;20413;50.782;7.152;2023-04-03T07:22:21;4.70;;;1.48;;
27408;SDS011;20413;50.782;7.152;2023-04-03T07:24:47;2.88;;;1.35;;
27408;SDS011;20413;50.782;7.152;2023-04-03T07:27:13;4.15;;;1.55;;
27408;SDS011;20413;50.782;7.152;2023-04-03T07:29:38;4.15;;;1.17;;
27408;SDS011;20413;50.782;7.152;2023-04-03T07:32:04;3.30;;;1.35;;
27408;SDS011;20413;50.782;7.152;2023-04-03T07:34:31;2.95;;;1.70;;
27408;SDS011;20413;50.782;7.152;2023-04-03T07:36:57;1.83;;;1.30;;
27408;SDS011;20413;50.782;7.152;2023-04-03T07:39:23;2.78;;;1.17;;
27408;SDS011;20413;50.782;7.152;2023-04-03T07:41:49;2.85;;;1.30;;
27408;SDS011;20413;50.782;7.152;2023-04-03T07:44:16;5.28;;;1.20;;
27408;SDS011;20413;50.782;7.152;2023-04-03T07:46:42;3.05;;;1.10;;
27408;SDS011;20413;50.782;7.152;2023-04-03T07:49:08;3.22;;;1.08;;
27408;SDS011;20413;50.782;7.152;2023-04-03T07:51:33;3.80;;;1.17;;
27408;SDS011;20413;50.782;7.152;2023-04-03T07:53:59;3.97;;;1.50;;
27408;SDS011;20413;50.782;7.152;2023-04-03T07:56:25;5.93;;;1.25;;
27408;SDS011;20413;50.782;7.152;2023-04-03T07:58:50;4.43;;;1.35;;
27408;SDS011;20413;50.782;7.152;2023-04-03T08:01:16;4.05;;;1.20;;
27408;SDS011;20413;50.782;7.152;2023-04-03T08:03:41;2.92;;;1.10;;
27408;SDS011;20413;50.782;7.152;2023-04-03T08:06:08;2.85;;;1.10;;
27408;SDS011;20413;50.782;7.152;2023-04-03T08:08:34;3.33;;;1.10;;
27408;SDS011;20413;50.782;7.152;2023-04-03T08:11:00;4.45;;;1.48;;
27408;SDS011;20413;50.782;7.152;2023-04-03T08:13:27;2.92;;;1.13;;
27408;SDS011;20413;50.782;7.152;2023-04-03T08:15:55;2.08;;;1.00;;
27408;SDS011;20413;50.782;7.152;2023-04-03T08:18:22;2.65;;;1.20;;
27408;SDS011;20413;50.782;7.152;2023-04-03T08:20:50;4.30;;;1.20;;
27408;SDS011;20413;50.782;7.152;2023-04-03T08:23:16;2.83;;;1.10;;
27408;SDS011;20413;50.782;7.152;2023-04-03T08:25:42;2.40;;;1.15;;
27408;SDS011;20413;50.782;7.152;2023-04-03T08:28:11;3.38;;;1.20;;
27408;SDS011;20413;50.782;7.152;2023-04-03T08:30:41;2.88;;;1.33;;
27408;SDS011;20413;50.782;7.152;2023-04-03T08:33:07;2.45;;;1.10;;
27408;SDS011;20413;50.782;7.152;2023-04-03T08:35:33;2.60;;;0.77;;
27408;SDS011;20413;50.782;7.152;2023-04-03T08:38:03;3.97;;;1.38;;
27408;SDS011;20413;50.782;7.152;2023-04-03T08:40:29;2.90;;;1.00;;
27408;SDS011;20413;50.782;7.152;2023-04-03T08:45:47;2.53;;;1.00;;
27408;SDS011;20413;50.782;7.152;2023-04-03T08:48:18;3.78;;;1.00;;
27408;SDS011;20413;50.782;7.152;2023-04-03T08:51:04;4.47;;;1.05;;
27408;SDS011;20413;50.782;7.152;2023-04-03T08:53:40;3.97;;;0.85;;
27408;SDS011;20413;50.782;7.152;2023-04-03T08:56:10;4.07;;;1.25;;
27408;SDS011;20413;50.782;7.152;2023-04-03T08:58:44;2.78;;;1.33;;
27408;SDS011;20413;50.782;7.152;2023-04-03T09:01:17;3.78;;;1.15;;
27408;SDS011;20413;50.782;7.152;2023-04-03T09:03:44;3.83;;;1.15;;
27408;SDS011;20413;50.782;7.152;2023-04-03T09:06:13;3.45;;;1.13;;
27408;SDS011;20413;50.782;7.152;2023-04-03T09:12:18;2.70;;;0.93;;
27408;SDS011;20413;50.782;7.152;2023-04-03T09:17:24;1.40;;;0.95;;
27408;SDS011;20413;50.782;7.152;2023-04-03T09:22:44;3.60;;;0.90;;
27408;SDS011;20413;50.782;7.152;2023-04-03T09:25:15;1.65;;;0.75;;
27408;SDS011;20413;50.782;7.152;2023-04-03T09:27:45;2.42;;;0.77;;
27408;SDS011;20413;50.782;7.152;2023-04-03T09:30:21;2.22;;;0.75;;
27408;SDS011;20413;50.782;7.152;2023-04-03T09:32:52;2.05;;;1.00;;
27408;SDS011;20413;50.782;7.152;2023-04-03T09:35:21;2.50;;;0.80;;
27408;SDS011;20413;50.782;7.152;2023-04-03T09:37:49;1.88;;;0.70;;
27408;SDS011;20413;50.782;7.152;2023-04-03T09:42:51;2.88;;;0.90;;
27408;SDS011;20413;50.782;7.152;2023-04-03T09:45:28;2.40;;;0.88;;
27408;SDS011;20413;50.782;7.152;2023-04-03T09:50:37;2.55;;;0.82;;
27408;SDS011;20413;50.782;7.152;2023-04-03T09:53:07;0.85;;;0.80;;
27408;SDS011;20413;50.782;7.152;2023-04-03T09:55:50;1.58;;;0.80;;
27408;SDS011;20413;50.782;7.152;2023-04-03T09:58:31;3.28;;;1.10;;
27408;SDS011;20413;50.782;7.152;2023-04-03T10:01:02;5.25;;;1.13;;
27408;SDS011;20413;50.782;7.152;2023-04-03T10:03:32;2.78;;;0.60;;
27408;SDS011;20413;50.782;7.152;2023-04-03T10:06:00;2.72;;;1.08;;
27408;SDS011;20413;50.782;7.152;2023-04-03T10:08:31;2.35;;;1.05;;
27408;SDS011;20413;50.782;7.152;2023-04-03T10:19:31;2.10;;;0.60;;
27408;SDS011;20413;50.782;7.152;2023-04-03T10:22:16;2.25;;;0.70;;
27408;SDS011;20413;50.782;7.152;2023-04-03T10:27:31;2.45;;;0.75;;
27408;SDS011;20413;50.782;7.152;2023-04-03T10:32:48;2.30;;;0.70;;
27408;SDS011;20413;50.782;7.152;2023-04-03T10:35:32;2.45;;;0.70;;
27408;SDS011;20413;50.782;7.152;2023-04-03T10:38:08;2.45;;;0.60;;
27408;SDS011;20413;50.782;7.152;2023-04-03T10:40:50;1.33;;;0.60;;
27408;SDS011;20413;50.782;7.152;2023-04-03T10:43:42;2.88;;;1.02;;
27408;SDS011;20413;50.782;7.152;2023-04-03T10:46:27;1.48;;;0.77;;
27408;SDS011;20413;50.782;7.152;2023-04-03T10:54:44;1.50;;;0.55;;
27408;SDS011;20413;50.782;7.152;2023-04-03T10:57:18;2.10;;;0.80;;
27408;SDS011;20413;50.782;7.152;2023-04-03T10:59:48;1.65;;;0.63;;
27408;SDS011;20413;50.782;7.152;2023-04-03T11:02:19;2.90;;;1.00;;
27408;SDS011;20413;50.782;7.152;2023-04-03T11:04:52;1.52;;;0.50;;
27408;SDS011;20413;50.782;7.152;2023-04-03T11:07:29;1.85;;;0.77;;
27408;SDS011;20413;50.782;7.152;2023-04-03T11:10:44;1.80;;;0.63;;
27408;SDS011;20413;50.782;7.152;2023-04-03T11:13:12;1.80;;;0.90;;
27408;SDS011;20413;50.782;7.152;2023-04-03T11:15:42;2.45;;;0.60;;
27408;SDS011;20413;50.782;7.152;2023-04-03T11:18:56;1.77;;;0.80;;
27408;SDS011;20413;50.782;7.152;2023-04-03T11:23:57;1.85;;;0.80;;
27408;SDS011;20413;50.782;7.152;2023-04-03T11:26:29;3.53;;;0.83;;
27408;SDS011;20413;50.782;7.152;2023-04-03T11:29:03;2.05;;;0.57;;
27408;SDS011;20413;50.782;7.152;2023-04-03T11:34:35;1.17;;;0.45;;
27408;SDS011;20413;50.782;7.152;2023-04-03T11:37:50;1.40;;;0.70;;
27408;SDS011;20413;50.782;7.152;2023-04-03T11:39:56;1.63;;;0.63;;
27408;SDS011;20413;50.782;7.152;2023-04-03T11:44:49;2.33;;;0.88;;
27408;SDS011;20413;50.782;7.152;2023-04-03T11:53:01;2.20;;;0.70;;
27408;SDS011;20413;50.782;7.152;2023-04-03T12:05:49;2.75;;;0.68;;
27408;SDS011;20413;50.782;7.152;2023-04-03T12:09:00;1.25;;;0.40;;
27408;SDS011;20413;50.782;7.152;2023-04-03T12:13:34;3.63;;;0.65;;
27408;SDS011;20413;50.782;7.152;2023-04-03T12:16:01;1.13;;;0.50;;
27408;SDS011;20413;50.782;7.152;2023-04-03T12:18:41;2.78;;;0.80;;
27408;SDS011;20413;50.782;7.152;2023-04-03T12:21:08;2.20;;;0.70;;
27408;SDS011;20413;50.782;7.152;2023-04-03T12:23:35;2.45;;;0.93;;
27408;SDS011;20413;50.782;7.152;2023-04-03T12:26:22;1.67;;;0.70;;
27408;SDS011;20413;50.782;7.152;2023-04-03T12:28:50;2.92;;;0.88;;
27408;SDS011;20413;50.782;7.152;2023-04-03T12:31:17;2.88;;;0.68;;
27408;SDS011;20413;50.782;7.152;2023-04-03T12:33:57;3.33;;;0.80;;
27408;SDS011;20413;50.782;7.152;2023-04-03T12:36:29;1.15;;;0.68;;
27408;SDS011;20413;50.782;7.152;2023-04-03T12:41:37;1.98;;;0.70;;
27408;SDS011;20413;50.782;7.152;2023-04-03T12:46:36;1.58;;;0.70;;
27408;SDS011;20413;50.782;7.152;2023-04-03T12:49:05;3.28;;;0.80;;
27408;SDS011;20413;50.782;7.152;2023-04-03T12:51:41;1.85;;;0.68;;
27408;SDS011;20413;50.782;7.152;2023-04-03T12:54:15;2.33;;;0.50;;
27408;SDS011;20413;50.782;7.152;2023-04-03T12:56:42;1.08;;;0.63;;
27408;SDS011;20413;50.782;7.152;2023-04-03T12:59:24;1.13;;;0.60;;
27408;SDS011;20413;50.782;7.152;2023-04-03T13:01:58;1.27;;;0.50;;
27408;SDS011;20413;50.782;7.152;2023-04-03T13:04:25;4.53;;;0.98;;
27408;SDS011;20413;50.782;7.152;2023-04-03T13:06:52;1.90;;;0.98;;
27408;SDS011;20413;50.782;7.152;2023-04-03T13:11:49;1.42;;;0.90;;
27408;SDS011;20413;50.782;7.152;2023-04-03T13:14:22;1.17;;;0.65;;
27408;SDS011;20413;50.782;7.152;2023-04-03T13:17:32;3.97;;;1.20;;
27408;SDS011;20413;50.782;7.152;2023-04-03T13:19:40;1.65;;;0.70;;
27408;SDS011;20413;50.782;7.152;2023-04-03T13:22:30;1.65;;;0.55;;
27408;SDS011;20413;50.782;7.152;2023-04-03T13:25:03;2.42;;;0.70;;
27408;SDS011;20413;50.782;7.152;2023-04-03T13:27:31;1.38;;;0.73;;
27408;SDS011;20413;50.782;7.152;2023-04-03T13:29:58;1.23;;;0.63;;
27408;SDS011;20413;50.782;7.152;2023-04-03T13:32:26;1.40;;;0.75;;
27408;SDS011;20413;50.782;7.152;2023-04-03T13:34:53;1.23;;;0.70;;
27408;SDS011;20413;50.782;7.152;2023-04-03T13:37:20;3.35;;;0.70;;
27408;SDS011;20413;50.782;7.152;2023-04-03T13:39:55;2.10;;;0.68;;
27408;SDS011;20413;50.782;7.152;2023-04-03T13:42:23;2.60;;;0.80;;
27408;SDS011;20413;50.782;7.152;2023-04-03T13:44:49;5.03;;;0.68;;
27408;SDS011;20413;50.782;7.152;2023-04-03T13:47:37;2.75;;;0.80;;
27408;SDS011;20413;50.782;7.152;2023-04-03T13:52:40;2.05;;;0.80;;
27408;SDS011;20413;50.782;7.152;2023-04-03T13:57:53;1.17;;;0.60;;
27408;SDS011;20413;50.782;7.152;2023-04-03T14:00:20;2.25;;;1.02;;
27408;SDS011;20413;50.782;7.152;2023-04-03T14:02:47;1.63;;;0.60;;
27408;SDS011;20413;50.782;7.152;2023-04-03T14:05:13;2.00;;;0.80;;
27408;SDS011;20413;50.782;7.152;2023-04-03T14:07:41;1.58;;;0.98;;
27408;SDS011;20413;50.782;7.152;2023-04-03T14:10:07;1.02;;;0.70;;
27408;SDS011;20413;50.782;7.152;2023-04-03T14:12:35;2.63;;;0.80;;
27408;SDS011;20413;50.782;7.152;2023-04-03T14:15:03;0.95;;;0.60;;
27408;SDS011;20413;50.782;7.152;2023-04-03T14:17:29;1.48;;;0.93;;
27408;SDS011;20413;50.782;7.152;2023-04-03T14:19:56;3.10;;;0.82;;
27408;SDS011;20413;50.782;7.152;2023-04-03T14:22:24;2.78;;;0.80;;
27408;SDS011;20413;50.782;7.152;2023-04-03T14:24:53;2.03;;;0.90;;
27408;SDS011;20413;50.782;7.152;2023-04-03T14:27:23;2.47;;;0.70;;
27408;SDS011;20413;50.782;7.152;2023-04-03T14:29:52;1.58;;;0.93;;
27408;SDS011;20413;50.782;7.152;2023-04-03T14:32:22;1.55;;;0.82;;
27408;SDS011;20413;50.782;7.152;2023-04-03T14:34:50;1.83;;;0.98;;
27408;SDS011;20413;50.782;7.152;2023-04-03T14:37:20;2.22;;;0.73;;
27408;SDS011;20413;50.782;7.152;2023-04-03T14:39:49;1.85;;;0.70;;
27408;SDS011;20413;50.782;7.152;2023-04-03T14:42:17;4.15;;;1.10;;
27408;SDS011;20413;50.782;7.152;2023-04-03T14:44:49;1.27;;;0.90;;
27408;SDS011;20413;50.782;7.152;2023-04-03T14:47:16;3.72;;;0.70;;
27408;SDS011;20413;50.782;7.152;2023-04-03T14:49:46;2.13;;;0.85;;
27408;SDS011;20413;50.782;7.152;2023-04-03T14:54:51;1.60;;;0.80;;
27408;SDS011;20413;50.782;7.152;2023-04-03T14:57:18;2.30;;;0.75;;
27408;SDS011;20413;50.782;7.152;2023-04-03T14:59:44;2.85;;;0.90;;
27408;SDS011;20413;50.782;7.152;2023-04-03T15:04:56;3.13;;;0.52;;
27408;SDS011;20413;50.782;7.152;2023-04-03T15:07:24;2.20;;;0.88;;
27408;SDS011;20413;50.782;7.152;2023-04-03T15:09:51;1.63;;;0.77;;
27408;SDS011;20413;50.782;7.152;2023-04-03T15:12:17;1.83;;;0.90;;
27408;SDS011;20413;50.782;7.152;2023-04-03T15:14:43;2.15;;;0.73;;
27408;SDS011;20413;50.782;7.152;2023-04-03T15:17:15;2.22;;;0.80;;
27408;SDS011;20413;50.782;7.152;2023-04-03T15:19:47;2.70;;;0.80;;
27408;SDS011;20413;50.782;7.152;2023-04-03T15:22:14;1.70;;;0.80;;
27408;SDS011;20413;50.782;7.152;2023-04-03T15:24:43;2.08;;;0.70;;
27408;SDS011;20413;50.782;7.152;2023-04-03T15:27:09;2.65;;;0.80;;
27408;SDS011;20413;50.782;7.152;2023-04-03T15:29:37;1.93;;;1.10;;
27408;SDS011;20413;50.782;7.152;2023-04-03T15:32:03;1.27;;;0.60;;
27408;SDS011;20413;50.782;7.152;2023-04-03T15:34:29;1.83;;;0.80;;
27408;SDS011;20413;50.782;7.152;2023-04-03T15:36:56;1.95;;;0.80;;
27408;SDS011;20413;50.782;7.152;2023-04-03T15:39:21;2.80;;;0.90;;
27408;SDS011;20413;50.782;7.152;2023-04-03T15:41:48;1.30;;;0.85;;
27408;SDS011;20413;50.782;7.152;2023-04-03T15:44:13;5.95;;;3.17;;
27408;SDS011;20413;50.782;7.152;2023-04-03T15:46:42;3.42;;;2.08;;
27408;SDS011;20413;50.782;7.152;2023-04-03T15:49:08;1.48;;;1.13;;
27408;SDS011;20413;50.782;7.152;2023-04-03T15:51:34;3.85;;;1.73;;
27408;SDS011;20413;50.782;7.152;2023-04-03T15:54:00;3.10;;;1.33;;
27408;SDS011;20413;50.782;7.152;2023-04-03T15:56:26;2.65;;;0.93;;
27408;SDS011;20413;50.782;7.152;2023-04-03T15:58:51;1.17;;;0.52;;
27408;SDS011;20413;50.782;7.152;2023-04-03T16:01:17;1.10;;;0.80;;
27408;SDS011;20413;50.782;7.152;2023-04-03T16:03:43;0.88;;;0.70;;
27408;SDS011;20413;50.782;7.152;2023-04-03T16:06:13;3.58;;;0.80;;
27408;SDS011;20413;50.782;7.152;2023-04-03T16:08:40;1.77;;;0.75;;
27408;SDS011;20413;50.782;7.152;2023-04-03T16:11:07;1.55;;;0.60;;
27408;SDS011;20413;50.782;7.152;2023-04-03T16:13:33;2.95;;;0.90;;
27408;SDS011;20413;50.782;7.152;2023-04-03T16:15:59;2.58;;;0.90;;
27408;SDS011;20413;50.782;7.152;2023-04-03T16:18:26;2.60;;;1.08;;
27408;SDS011;20413;50.782;7.152;2023-04-03T16:20:53;3.90;;;0.93;;
27408;SDS011;20413;50.782;7.152;2023-04-03T16:23:19;3.15;;;0.88;;
27408;SDS011;20413;50.782;7.152;2023-04-03T16:25:45;2.15;;;0.90;;
27408;SDS011;20413;50.782;7.152;2023-04-03T16:28:15;3.80;;;0.88;;
27408;SDS011;20413;50.782;7.152;2023-04-03T16:30:42;1.48;;;0.70;;
27408;SDS011;20413;50.782;7.152;2023-04-03T16:33:10;1.38;;;0.77;;